sensor_id;sensor_type;location;lat;lon;timestamp;P1;durP1;ratioP1;P2;durP2;ratioP2
22677;SDS011;26259;50.214;18.620;2023-04-15T00:00:35;13.33;;;9.27;;
22677;SDS011;26259;50.214;18.620;2023-04-15T00:03:01;14.97;;;9.47;;
22677;SDS011;26259;50.214;18.620;2023-04-15T00:05:28;12.73;;;9.57;;
22677;SDS011;26259;50.214;18.620;2023-04-15T00:07:54;16.90;;;11.20;;
22677;SDS011;26259;50.214;18.620;2023-04-15T00:10:20;15.00;;;11.70;;
22677;SDS011;26259;50.214;18.620;2023-04-15T00:12:45;17.03;;;12.87;;
22677;SDS011;26259;50.214;18.620;2023-04-15T00:15:11;20.27;;;14.23;;
22677;SDS011;26259;50.214;18.620;2023-04-15T00:17:36;23.67;;;17.10;;
22677;SDS011;26259;50.214;18.620;2023-04-15T00:20:03;24.27;;;16.67;;
22677;SDS011;26259;50.214;18.620;2023-04-15T00:22:30;24.13;;;18.57;;
22677;SDS011;26259;50.214;18.620;2023-04-15T00:24:56;25.33;;;18.87;;
22677;SDS011;26259;50.214;18.620;2023-04-15T00:27:22;27.23;;;21.43;;
22677;SDS011;26259;50.214;18.620;2023-04-15T00:29:47;32.57;;;24.93;;
22677;SDS011;26259;50.214;18.620;2023-04-15T00:32:13;28.90;;;23.73;;
22677;SDS011;26259;50.214;18.620;2023-04-15T00:34:39;25.67;;;17.07;;
22677;SDS011;26259;50.214;18.620;2023-04-15T00:37:04;20.80;;;13.40;;
22677;SDS011;26259;50.214;18.620;2023-04-15T00:39:30;20.67;;;12.17;;
22677;SDS011;26259;50.214;18.620;2023-04-15T00:41:56;17.53;;;13.37;;
22677;SDS011;26259;50.214;18.620;2023-04-15T00:44:22;23.33;;;14.77;;
22677;SDS011;26259;50.214;18.620;2023-04-15T00:46:47;22.23;;;15.50;;
22677;SDS011;26259;50.214;18.620;2023-04-15T00:49:15;26.50;;;17.53;;
22677;SDS011;26259;50.214;18.620;2023-04-15T00:51:44;26.67;;;17.70;;
22677;SDS011;26259;50.214;18.620;2023-04-15T00:54:10;29.33;;;18.23;;
22677;SDS011;26259;50.214;18.620;2023-04-15T00:56:36;40.23;;;24.43;;
22677;SDS011;26259;50.214;18.620;2023-04-15T00:59:03;25.47;;;16.60;;
22677;SDS011;26259;50.214;18.620;2023-04-15T01:01:30;31.67;;;17.23;;
22677;SDS011;26259;50.214;18.620;2023-04-15T01:03:57;24.77;;;15.27;;
22677;SDS011;26259;50.214;18.620;2023-04-15T01:06:23;21.27;;;14.33;;
22677;SDS011;26259;50.214;18.620;2023-04-15T01:08:48;18.53;;;12.27;;
22677;SDS011;26259;50.214;18.620;2023-04-15T01:11:14;23.33;;;12.63;;
22677;SDS011;26259;50.214;18.620;2023-04-15T01:13:42;20.37;;;13.00;;
22677;SDS011;26259;50.214;18.620;2023-04-15T01:16:07;19.50;;;12.43;;
22677;SDS011;26259;50.214;18.620;2023-04-15T01:18:33;17.20;;;10.40;;
22677;SDS011;26259;50.214;18.620;2023-04-15T01:21:01;19.47;;;12.00;;
22677;SDS011;26259;50.214;18.620;2023-04-15T01:23:28;15.67;;;10.53;;
22677;SDS011;26259;50.214;18.620;2023-04-15T01:25:54;17.67;;;12.73;;
22677;SDS011;26259;50.214;18.620;2023-04-15T01:28:20;19.83;;;15.53;;
22677;SDS011;26259;50.214;18.620;2023-04-15T01:30:46;19.33;;;14.90;;
22677;SDS011;26259;50.214;18.620;2023-04-15T01:33:12;21.57;;;15.30;;
22677;SDS011;26259;50.214;18.620;2023-04-15T01:35:38;19.40;;;14.10;;
22677;SDS011;26259;50.214;18.620;2023-04-15T01:38:07;17.87;;;11.40;;
22677;SDS011;26259;50.214;18.620;2023-04-15T01:40:33;17.47;;;11.97;;
22677;SDS011;26259;50.214;18.620;2023-04-15T01:43:00;17.73;;;11.40;;
22677;SDS011;26259;50.214;18.620;2023-04-15T01:45:26;16.83;;;10.93;;
22677;SDS011;26259;50.214;18.620;2023-04-15T01:47:52;13.57;;;9.50;;
22677;SDS011;26259;50.214;18.620;2023-04-15T01:50:18;18.50;;;10.37;;
22677;SDS011;26259;50.214;18.620;2023-04-15T01:52:44;15.93;;;10.63;;
22677;SDS011;26259;50.214;18.620;2023-04-15T01:55:11;20.37;;;11.60;;
22677;SDS011;26259;50.214;18.620;2023-04-15T01:57:37;15.33;;;11.30;;
22677;SDS011;26259;50.214;18.620;2023-04-15T02:00:03;19.47;;;12.37;;
22677;SDS011;26259;50.214;18.620;2023-04-15T02:02:28;19.87;;;12.67;;
22677;SDS011;26259;50.214;18.620;2023-04-15T02:04:54;20.77;;;13.43;;
22677;SDS011;26259;50.214;18.620;2023-04-15T02:07:20;24.30;;;17.23;;
22677;SDS011;26259;50.214;18.620;2023-04-15T02:09:45;21.47;;;15.87;;
22677;SDS011;26259;50.214;18.620;2023-04-15T02:12:11;21.57;;;14.50;;
22677;SDS011;26259;50.214;18.620;2023-04-15T02:14:37;17.87;;;11.17;;
22677;SDS011;26259;50.214;18.620;2023-04-15T02:17:03;24.97;;;14.30;;
22677;SDS011;26259;50.214;18.620;2023-04-15T02:19:32;50.07;;;22.27;;
22677;SDS011;26259;50.214;18.620;2023-04-15T02:21:59;20.43;;;11.57;;
22677;SDS011;26259;50.214;18.620;2023-04-15T02:24:25;14.47;;;8.27;;
22677;SDS011;26259;50.214;18.620;2023-04-15T02:26:51;15.90;;;9.63;;
22677;SDS011;26259;50.214;18.620;2023-04-15T02:29:17;13.70;;;8.97;;
22677;SDS011;26259;50.214;18.620;2023-04-15T02:31:42;14.27;;;9.73;;
22677;SDS011;26259;50.214;18.620;2023-04-15T02:34:09;20.00;;;13.23;;
22677;SDS011;26259;50.214;18.620;2023-04-15T02:36:34;14.70;;;9.60;;
22677;SDS011;26259;50.214;18.620;2023-04-15T02:39:00;15.17;;;10.13;;
22677;SDS011;26259;50.214;18.620;2023-04-15T02:41:26;14.90;;;9.63;;
22677;SDS011;26259;50.214;18.620;2023-04-15T02:43:52;21.00;;;12.23;;
22677;SDS011;26259;50.214;18.620;2023-04-15T02:46:18;19.00;;;11.70;;
22677;SDS011;26259;50.214;18.620;2023-04-15T02:48:45;17.03;;;11.10;;
22677;SDS011;26259;50.214;18.620;2023-04-15T02:51:15;16.23;;;10.30;;
22677;SDS011;26259;50.214;18.620;2023-04-15T02:53:43;19.70;;;11.67;;
22677;SDS011;26259;50.214;18.620;2023-04-15T02:56:10;21.13;;;13.97;;
22677;SDS011;26259;50.214;18.620;2023-04-15T02:58:36;23.17;;;15.00;;
22677;SDS011;26259;50.214;18.620;2023-04-15T03:01:02;22.93;;;15.13;;
22677;SDS011;26259;50.214;18.620;2023-04-15T03:03:27;25.63;;;14.20;;
22677;SDS011;26259;50.214;18.620;2023-04-15T03:05:53;23.23;;;14.37;;
22677;SDS011;26259;50.214;18.620;2023-04-15T03:08:19;23.53;;;15.17;;
22677;SDS011;26259;50.214;18.620;2023-04-15T03:10:47;21.43;;;13.70;;
22677;SDS011;26259;50.214;18.620;2023-04-15T03:13:13;22.27;;;14.23;;
22677;SDS011;26259;50.214;18.620;2023-04-15T03:15:38;22.90;;;13.43;;
22677;SDS011;26259;50.214;18.620;2023-04-15T03:18:04;27.37;;;15.63;;
22677;SDS011;26259;50.214;18.620;2023-04-15T03:20:29;22.13;;;14.00;;
22677;SDS011;26259;50.214;18.620;2023-04-15T03:22:55;17.83;;;11.50;;
22677;SDS011;26259;50.214;18.620;2023-04-15T03:25:21;20.63;;;11.70;;
22677;SDS011;26259;50.214;18.620;2023-04-15T03:27:46;17.83;;;11.70;;
22677;SDS011;26259;50.214;18.620;2023-04-15T03:30:12;16.50;;;10.63;;
22677;SDS011;26259;50.214;18.620;2023-04-15T03:32:38;18.20;;;12.07;;
22677;SDS011;26259;50.214;18.620;2023-04-15T03:35:03;16.43;;;11.33;;
22677;SDS011;26259;50.214;18.620;2023-04-15T03:37:30;16.33;;;10.77;;
22677;SDS011;26259;50.214;18.620;2023-04-15T03:39:55;21.43;;;13.43;;
22677;SDS011;26259;50.214;18.620;2023-04-15T03:42:21;18.73;;;13.60;;
22677;SDS011;26259;50.214;18.620;2023-04-15T03:44:47;19.33;;;12.60;;
22677;SDS011;26259;50.214;18.620;2023-04-15T03:47:12;18.20;;;11.53;;
22677;SDS011;26259;50.214;18.620;2023-04-15T03:49:38;17.17;;;10.97;;
22677;SDS011;26259;50.214;18.620;2023-04-15T03:52:03;22.47;;;15.07;;
22677;SDS011;26259;50.214;18.620;2023-04-15T03:54:29;30.40;;;16.50;;
22677;SDS011;26259;50.214;18.620;2023-04-15T03:56:55;29.00;;;16.83;;
22677;SDS011;26259;50.214;18.620;2023-04-15T03:59:20;28.87;;;19.00;;
22677;SDS011;26259;50.214;18.620;2023-04-15T04:01:46;38.07;;;19.57;;
22677;SDS011;26259;50.214;18.620;2023-04-15T04:04:11;32.17;;;17.57;;
22677;SDS011;26259;50.214;18.620;2023-04-15T04:06:37;22.63;;;13.27;;
22677;SDS011;26259;50.214;18.620;2023-04-15T04:09:03;17.97;;;13.10;;
22677;SDS011;26259;50.214;18.620;2023-04-15T04:11:29;16.03;;;11.10;;
22677;SDS011;26259;50.214;18.620;2023-04-15T04:13:54;15.20;;;9.80;;
22677;SDS011;26259;50.214;18.620;2023-04-15T04:16:20;14.73;;;10.37;;
22677;SDS011;26259;50.214;18.620;2023-04-15T04:18:45;18.30;;;9.60;;
22677;SDS011;26259;50.214;18.620;2023-04-15T04:21:11;16.00;;;10.20;;
22677;SDS011;26259;50.214;18.620;2023-04-15T04:23:36;19.60;;;11.00;;
22677;SDS011;26259;50.214;18.620;2023-04-15T04:26:02;16.30;;;10.77;;
22677;SDS011;26259;50.214;18.620;2023-04-15T04:28:28;19.67;;;11.90;;
22677;SDS011;26259;50.214;18.620;2023-04-15T04:30:53;22.83;;;12.53;;
22677;SDS011;26259;50.214;18.620;2023-04-15T04:33:19;17.20;;;12.00;;
22677;SDS011;26259;50.214;18.620;2023-04-15T04:35:45;15.53;;;10.93;;
22677;SDS011;26259;50.214;18.620;2023-04-15T04:38:10;22.17;;;14.40;;
22677;SDS011;26259;50.214;18.620;2023-04-15T04:40:36;33.87;;;23.40;;
22677;SDS011;26259;50.214;18.620;2023-04-15T04:43:02;27.77;;;18.30;;
22677;SDS011;26259;50.214;18.620;2023-04-15T04:45:27;24.60;;;18.07;;
22677;SDS011;26259;50.214;18.620;2023-04-15T04:47:53;31.23;;;24.30;;
22677;SDS011;26259;50.214;18.620;2023-04-15T04:50:19;16.50;;;10.83;;
22677;SDS011;26259;50.214;18.620;2023-04-15T04:52:44;13.40;;;8.57;;
22677;SDS011;26259;50.214;18.620;2023-04-15T04:55:10;12.00;;;8.27;;
22677;SDS011;26259;50.214;18.620;2023-04-15T04:57:36;11.90;;;8.13;;
22677;SDS011;26259;50.214;18.620;2023-04-15T05:00:03;14.17;;;8.70;;
22677;SDS011;26259;50.214;18.620;2023-04-15T05:02:30;14.47;;;8.50;;
22677;SDS011;26259;50.214;18.620;2023-04-15T05:04:56;69.10;;;29.80;;
22677;SDS011;26259;50.214;18.620;2023-04-15T05:07:21;26.53;;;14.00;;
22677;SDS011;26259;50.214;18.620;2023-04-15T05:09:47;39.23;;;19.00;;
22677;SDS011;26259;50.214;18.620;2023-04-15T05:12:13;50.83;;;23.70;;
22677;SDS011;26259;50.214;18.620;2023-04-15T05:14:39;34.13;;;16.73;;
22677;SDS011;26259;50.214;18.620;2023-04-15T05:17:06;26.53;;;15.70;;
22677;SDS011;26259;50.214;18.620;2023-04-15T05:19:31;23.13;;;13.80;;
22677;SDS011;26259;50.214;18.620;2023-04-15T05:21:57;14.77;;;10.70;;
22677;SDS011;26259;50.214;18.620;2023-04-15T05:24:23;16.37;;;10.07;;
22677;SDS011;26259;50.214;18.620;2023-04-15T05:26:48;15.40;;;9.17;;
22677;SDS011;26259;50.214;18.620;2023-04-15T05:29:14;14.07;;;9.80;;
22677;SDS011;26259;50.214;18.620;2023-04-15T05:31:40;11.67;;;8.30;;
22677;SDS011;26259;50.214;18.620;2023-04-15T05:34:06;11.37;;;7.73;;
22677;SDS011;26259;50.214;18.620;2023-04-15T05:36:31;12.80;;;9.00;;
22677;SDS011;26259;50.214;18.620;2023-04-15T05:38:57;16.30;;;10.33;;
22677;SDS011;26259;50.214;18.620;2023-04-15T05:41:22;19.07;;;11.10;;
22677;SDS011;26259;50.214;18.620;2023-04-15T05:43:48;17.77;;;10.67;;
22677;SDS011;26259;50.214;18.620;2023-04-15T05:46:13;14.43;;;10.63;;
22677;SDS011;26259;50.214;18.620;2023-04-15T05:48:39;15.87;;;10.63;;
22677;SDS011;26259;50.214;18.620;2023-04-15T05:51:05;20.13;;;11.77;;
22677;SDS011;26259;50.214;18.620;2023-04-15T05:53:31;22.13;;;13.47;;
22677;SDS011;26259;50.214;18.620;2023-04-15T05:55:56;24.07;;;13.53;;
22677;SDS011;26259;50.214;18.620;2023-04-15T05:58:22;19.37;;;13.37;;
22677;SDS011;26259;50.214;18.620;2023-04-15T06:00:47;21.30;;;14.27;;
22677;SDS011;26259;50.214;18.620;2023-04-15T06:03:13;19.63;;;13.70;;
22677;SDS011;26259;50.214;18.620;2023-04-15T06:05:39;18.93;;;12.87;;
22677;SDS011;26259;50.214;18.620;2023-04-15T06:08:05;19.73;;;13.57;;
22677;SDS011;26259;50.214;18.620;2023-04-15T06:10:30;18.30;;;12.77;;
22677;SDS011;26259;50.214;18.620;2023-04-15T06:13:00;18.37;;;11.90;;
22677;SDS011;26259;50.214;18.620;2023-04-15T06:15:29;18.10;;;11.23;;
22677;SDS011;26259;50.214;18.620;2023-04-15T06:17:54;15.73;;;10.77;;
22677;SDS011;26259;50.214;18.620;2023-04-15T06:20:20;14.40;;;10.17;;
22677;SDS011;26259;50.214;18.620;2023-04-15T06:22:46;12.60;;;9.17;;
22677;SDS011;26259;50.214;18.620;2023-04-15T06:25:11;9.10;;;7.27;;
22677;SDS011;26259;50.214;18.620;2023-04-15T06:27:37;8.57;;;6.27;;
22677;SDS011;26259;50.214;18.620;2023-04-15T06:30:04;9.20;;;6.77;;
22677;SDS011;26259;50.214;18.620;2023-04-15T06:32:31;6.03;;;5.03;;
22677;SDS011;26259;50.214;18.620;2023-04-15T06:34:56;6.57;;;5.20;;
22677;SDS011;26259;50.214;18.620;2023-04-15T06:37:22;7.53;;;5.47;;
22677;SDS011;26259;50.214;18.620;2023-04-15T06:39:47;5.73;;;4.73;;
22677;SDS011;26259;50.214;18.620;2023-04-15T06:42:13;6.13;;;4.37;;
22677;SDS011;26259;50.214;18.620;2023-04-15T06:44:39;6.10;;;4.50;;
22677;SDS011;26259;50.214;18.620;2023-04-15T06:47:04;6.37;;;4.50;;
22677;SDS011;26259;50.214;18.620;2023-04-15T06:49:30;6.77;;;4.97;;
22677;SDS011;26259;50.214;18.620;2023-04-15T06:51:55;6.00;;;4.57;;
22677;SDS011;26259;50.214;18.620;2023-04-15T06:54:21;6.80;;;4.93;;
22677;SDS011;26259;50.214;18.620;2023-04-15T06:56:47;10.33;;;7.90;;
22677;SDS011;26259;50.214;18.620;2023-04-15T06:59:12;7.77;;;4.80;;
22677;SDS011;26259;50.214;18.620;2023-04-15T07:01:41;6.67;;;4.43;;
22677;SDS011;26259;50.214;18.620;2023-04-15T07:04:07;7.73;;;5.00;;
22677;SDS011;26259;50.214;18.620;2023-04-15T07:06:33;5.33;;;4.27;;
22677;SDS011;26259;50.214;18.620;2023-04-15T07:08:59;7.10;;;4.53;;
22677;SDS011;26259;50.214;18.620;2023-04-15T07:11:25;5.53;;;3.50;;
22677;SDS011;26259;50.214;18.620;2023-04-15T07:13:51;4.87;;;3.20;;
22677;SDS011;26259;50.214;18.620;2023-04-15T07:16:16;4.90;;;3.60;;
22677;SDS011;26259;50.214;18.620;2023-04-15T07:18:42;7.40;;;5.03;;
22677;SDS011;26259;50.214;18.620;2023-04-15T07:21:08;5.43;;;3.77;;
22677;SDS011;26259;50.214;18.620;2023-04-15T07:23:33;5.07;;;2.97;;
22677;SDS011;26259;50.214;18.620;2023-04-15T07:25:59;5.33;;;3.53;;
22677;SDS011;26259;50.214;18.620;2023-04-15T07:28:25;9.80;;;3.83;;
22677;SDS011;26259;50.214;18.620;2023-04-15T07:30:51;3.47;;;3.07;;
22677;SDS011;26259;50.214;18.620;2023-04-15T07:33:16;7.10;;;4.67;;
22677;SDS011;26259;50.214;18.620;2023-04-15T07:35:42;6.37;;;3.90;;
22677;SDS011;26259;50.214;18.620;2023-04-15T07:38:09;10.33;;;3.50;;
22677;SDS011;26259;50.214;18.620;2023-04-15T07:40:36;5.83;;;3.17;;
22677;SDS011;26259;50.214;18.620;2023-04-15T07:43:03;6.67;;;3.50;;
22677;SDS011;26259;50.214;18.620;2023-04-15T07:45:29;5.17;;;3.50;;
22677;SDS011;26259;50.214;18.620;2023-04-15T07:47:55;4.87;;;3.10;;
22677;SDS011;26259;50.214;18.620;2023-04-15T07:50:21;4.93;;;2.73;;
22677;SDS011;26259;50.214;18.620;2023-04-15T07:52:47;5.23;;;2.50;;
22677;SDS011;26259;50.214;18.620;2023-04-15T07:55:13;5.93;;;2.43;;
22677;SDS011;26259;50.214;18.620;2023-04-15T07:57:41;2.67;;;2.00;;
22677;SDS011;26259;50.214;18.620;2023-04-15T08:00:07;4.53;;;2.17;;
22677;SDS011;26259;50.214;18.620;2023-04-15T08:02:33;5.13;;;3.17;;
22677;SDS011;26259;50.214;18.620;2023-04-15T08:04:59;3.00;;;1.83;;
22677;SDS011;26259;50.214;18.620;2023-04-15T08:07:26;2.83;;;1.80;;
22677;SDS011;26259;50.214;18.620;2023-04-15T08:09:52;3.63;;;2.30;;
22677;SDS011;26259;50.214;18.620;2023-04-15T08:12:18;2.33;;;1.47;;
22677;SDS011;26259;50.214;18.620;2023-04-15T08:14:43;4.47;;;1.97;;
22677;SDS011;26259;50.214;18.620;2023-04-15T08:17:09;4.47;;;2.07;;
22677;SDS011;26259;50.214;18.620;2023-04-15T08:19:35;5.47;;;2.30;;
22677;SDS011;26259;50.214;18.620;2023-04-15T08:22:01;2.60;;;1.97;;
22677;SDS011;26259;50.214;18.620;2023-04-15T08:24:26;3.27;;;1.90;;
22677;SDS011;26259;50.214;18.620;2023-04-15T08:26:52;2.60;;;1.80;;
22677;SDS011;26259;50.214;18.620;2023-04-15T08:29:18;4.10;;;2.50;;
22677;SDS011;26259;50.214;18.620;2023-04-15T08:31:43;3.30;;;2.13;;
22677;SDS011;26259;50.214;18.620;2023-04-15T08:34:12;3.33;;;2.00;;
22677;SDS011;26259;50.214;18.620;2023-04-15T08:36:38;2.33;;;1.87;;
22677;SDS011;26259;50.214;18.620;2023-04-15T08:39:04;2.20;;;2.00;;
22677;SDS011;26259;50.214;18.620;2023-04-15T08:41:39;2.77;;;1.90;;
22677;SDS011;26259;50.214;18.620;2023-04-15T08:44:13;3.07;;;1.00;;
22677;SDS011;26259;50.214;18.620;2023-04-15T08:46:39;1.33;;;1.10;;
22677;SDS011;26259;50.214;18.620;2023-04-15T08:49:07;0.60;;;0.60;;
22677;SDS011;26259;50.214;18.620;2023-04-15T08:51:39;0.40;;;0.40;;
22677;SDS011;26259;50.214;18.620;2023-04-15T08:54:06;1.57;;;0.90;;
22677;SDS011;26259;50.214;18.620;2023-04-15T08:56:32;3.27;;;1.00;;
22677;SDS011;26259;50.214;18.620;2023-04-15T08:58:59;0.80;;;0.50;;
22677;SDS011;26259;50.214;18.620;2023-04-15T09:01:25;5.10;;;3.90;;
22677;SDS011;26259;50.214;18.620;2023-04-15T09:03:51;1.80;;;0.73;;
22677;SDS011;26259;50.214;18.620;2023-04-15T09:06:18;0.80;;;0.70;;
22677;SDS011;26259;50.214;18.620;2023-04-15T09:08:45;1.90;;;1.30;;
22677;SDS011;26259;50.214;18.620;2023-04-15T09:11:10;0.60;;;0.60;;
22677;SDS011;26259;50.214;18.620;2023-04-15T09:13:36;0.90;;;0.60;;
22677;SDS011;26259;50.214;18.620;2023-04-15T09:16:02;0.70;;;0.70;;
22677;SDS011;26259;50.214;18.620;2023-04-15T09:18:30;0.90;;;0.73;;
22677;SDS011;26259;50.214;18.620;2023-04-15T09:21:04;1.53;;;0.77;;
22677;SDS011;26259;50.214;18.620;2023-04-15T09:23:30;1.70;;;0.83;;
22677;SDS011;26259;50.214;18.620;2023-04-15T09:25:56;1.20;;;0.63;;
22677;SDS011;26259;50.214;18.620;2023-04-15T09:28:23;1.77;;;0.70;;
22677;SDS011;26259;50.214;18.620;2023-04-15T09:30:50;1.03;;;0.63;;
22677;SDS011;26259;50.214;18.620;2023-04-15T09:33:19;1.00;;;0.80;;
22677;SDS011;26259;50.214;18.620;2023-04-15T09:35:55;0.90;;;0.70;;
22677;SDS011;26259;50.214;18.620;2023-04-15T09:38:22;0.63;;;0.63;;
22677;SDS011;26259;50.214;18.620;2023-04-15T09:40:48;1.67;;;0.80;;
22677;SDS011;26259;50.214;18.620;2023-04-15T09:43:14;1.17;;;0.70;;
22677;SDS011;26259;50.214;18.620;2023-04-15T09:45:51;0.90;;;0.70;;
22677;SDS011;26259;50.214;18.620;2023-04-15T09:48:21;1.00;;;0.90;;
22677;SDS011;26259;50.214;18.620;2023-04-15T09:50:50;1.13;;;0.90;;
22677;SDS011;26259;50.214;18.620;2023-04-15T09:53:21;1.27;;;0.90;;
22677;SDS011;26259;50.214;18.620;2023-04-15T09:55:52;2.03;;;1.80;;
22677;SDS011;26259;50.214;18.620;2023-04-15T09:58:22;2.47;;;1.13;;
22677;SDS011;26259;50.214;18.620;2023-04-15T10:00:53;1.97;;;1.37;;
22677;SDS011;26259;50.214;18.620;2023-04-15T10:03:27;5.73;;;1.50;;
22677;SDS011;26259;50.214;18.620;2023-04-15T10:05:55;1.50;;;1.40;;
22677;SDS011;26259;50.214;18.620;2023-04-15T10:08:24;1.30;;;1.20;;
22677;SDS011;26259;50.214;18.620;2023-04-15T10:10:57;2.20;;;1.10;;
22677;SDS011;26259;50.214;18.620;2023-04-15T10:13:25;1.93;;;1.20;;
22677;SDS011;26259;50.214;18.620;2023-04-15T10:15:57;1.27;;;1.17;;
22677;SDS011;26259;50.214;18.620;2023-04-15T10:18:26;2.83;;;1.20;;
22677;SDS011;26259;50.214;18.620;2023-04-15T10:20:52;2.70;;;1.20;;
22677;SDS011;26259;50.214;18.620;2023-04-15T10:23:19;1.57;;;1.20;;
22677;SDS011;26259;50.214;18.620;2023-04-15T10:25:45;1.10;;;1.07;;
22677;SDS011;26259;50.214;18.620;2023-04-15T10:28:12;2.33;;;1.43;;
22677;SDS011;26259;50.214;18.620;2023-04-15T10:30:39;1.97;;;1.33;;
22677;SDS011;26259;50.214;18.620;2023-04-15T10:33:06;2.80;;;1.07;;
22677;SDS011;26259;50.214;18.620;2023-04-15T10:35:33;1.43;;;1.20;;
22677;SDS011;26259;50.214;18.620;2023-04-15T10:38:00;1.63;;;1.53;;
22677;SDS011;26259;50.214;18.620;2023-04-15T10:40:26;2.07;;;1.30;;
22677;SDS011;26259;50.214;18.620;2023-04-15T10:42:57;2.43;;;2.00;;
22677;SDS011;26259;50.214;18.620;2023-04-15T10:45:25;1.57;;;1.23;;
22677;SDS011;26259;50.214;18.620;2023-04-15T10:47:55;1.40;;;1.30;;
22677;SDS011;26259;50.214;18.620;2023-04-15T10:50:26;1.67;;;1.57;;
22677;SDS011;26259;50.214;18.620;2023-04-15T10:52:54;1.70;;;1.40;;
22677;SDS011;26259;50.214;18.620;2023-04-15T10:55:21;2.53;;;1.33;;
22677;SDS011;26259;50.214;18.620;2023-04-15T10:57:53;2.03;;;1.83;;
22677;SDS011;26259;50.214;18.620;2023-04-15T11:00:26;6.67;;;3.73;;
22677;SDS011;26259;50.214;18.620;2023-04-15T11:02:54;2.93;;;1.60;;
22677;SDS011;26259;50.214;18.620;2023-04-15T11:05:22;4.87;;;3.07;;
22677;SDS011;26259;50.214;18.620;2023-04-15T11:08:03;4.30;;;2.70;;
22677;SDS011;26259;50.214;18.620;2023-04-15T11:13:01;3.07;;;2.10;;
22677;SDS011;26259;50.214;18.620;2023-04-15T11:15:28;4.37;;;2.20;;
22677;SDS011;26259;50.214;18.620;2023-04-15T11:18:09;2.70;;;1.80;;
22677;SDS011;26259;50.214;18.620;2023-04-15T11:20:41;2.20;;;1.53;;
22677;SDS011;26259;50.214;18.620;2023-04-15T11:23:32;1.93;;;1.70;;
22677;SDS011;26259;50.214;18.620;2023-04-15T11:25:58;2.07;;;1.50;;
22677;SDS011;26259;50.214;18.620;2023-04-15T11:28:26;2.23;;;1.67;;
22677;SDS011;26259;50.214;18.620;2023-04-15T11:30:55;4.63;;;1.93;;
22677;SDS011;26259;50.214;18.620;2023-04-15T11:33:22;3.90;;;1.70;;
22677;SDS011;26259;50.214;18.620;2023-04-15T11:35:49;2.67;;;1.70;;
22677;SDS011;26259;50.214;18.620;2023-04-15T11:38:19;2.37;;;1.90;;
22677;SDS011;26259;50.214;18.620;2023-04-15T11:40:44;2.50;;;1.80;;
22677;SDS011;26259;50.214;18.620;2023-04-15T11:45:53;3.20;;;2.37;;
22677;SDS011;26259;50.214;18.620;2023-04-15T11:48:28;3.57;;;2.60;;
22677;SDS011;26259;50.214;18.620;2023-04-15T11:51:02;3.93;;;2.90;;
22677;SDS011;26259;50.214;18.620;2023-04-15T11:56:24;7.87;;;5.67;;
22677;SDS011;26259;50.214;18.620;2023-04-15T11:58:51;4.47;;;2.40;;
22677;SDS011;26259;50.214;18.620;2023-04-15T12:01:18;3.03;;;2.50;;
22677;SDS011;26259;50.214;18.620;2023-04-15T12:03:44;2.23;;;2.03;;
22677;SDS011;26259;50.214;18.620;2023-04-15T12:11:32;2.93;;;1.77;;
22677;SDS011;26259;50.214;18.620;2023-04-15T12:16:38;8.30;;;5.50;;
22677;SDS011;26259;50.214;18.620;2023-04-15T12:19:06;4.50;;;4.10;;
22677;SDS011;26259;50.214;18.620;2023-04-15T12:21:38;2.80;;;2.20;;
22677;SDS011;26259;50.214;18.620;2023-04-15T12:24:08;4.57;;;3.27;;
22677;SDS011;26259;50.214;18.620;2023-04-15T12:29:17;1.70;;;1.53;;
22677;SDS011;26259;50.214;18.620;2023-04-15T12:31:50;3.00;;;1.93;;
22677;SDS011;26259;50.214;18.620;2023-04-15T12:34:18;2.53;;;2.03;;
22677;SDS011;26259;50.214;18.620;2023-04-15T12:36:54;2.83;;;1.57;;
22677;SDS011;26259;50.214;18.620;2023-04-15T12:39:22;2.77;;;1.50;;
22677;SDS011;26259;50.214;18.620;2023-04-15T12:41:52;4.73;;;1.70;;
22677;SDS011;26259;50.214;18.620;2023-04-15T12:44:19;2.77;;;2.10;;
22677;SDS011;26259;50.214;18.620;2023-04-15T12:46:46;3.57;;;2.40;;
22677;SDS011;26259;50.214;18.620;2023-04-15T12:49:12;2.20;;;1.80;;
22677;SDS011;26259;50.214;18.620;2023-04-15T12:51:43;3.47;;;2.30;;
22677;SDS011;26259;50.214;18.620;2023-04-15T12:54:09;3.30;;;2.27;;
22677;SDS011;26259;50.214;18.620;2023-04-15T12:56:35;3.07;;;2.07;;
22677;SDS011;26259;50.214;18.620;2023-04-15T12:59:00;2.67;;;2.03;;
22677;SDS011;26259;50.214;18.620;2023-04-15T13:01:26;6.37;;;3.40;;
22677;SDS011;26259;50.214;18.620;2023-04-15T13:03:52;5.03;;;3.30;;
22677;SDS011;26259;50.214;18.620;2023-04-15T13:06:18;6.70;;;3.73;;
22677;SDS011;26259;50.214;18.620;2023-04-15T13:08:43;4.30;;;3.10;;
22677;SDS011;26259;50.214;18.620;2023-04-15T13:11:09;3.50;;;2.70;;
22677;SDS011;26259;50.214;18.620;2023-04-15T13:13:34;3.77;;;2.60;;
22677;SDS011;26259;50.214;18.620;2023-04-15T13:16:00;5.47;;;2.87;;
22677;SDS011;26259;50.214;18.620;2023-04-15T13:18:26;6.73;;;3.60;;
22677;SDS011;26259;50.214;18.620;2023-04-15T13:20:52;3.73;;;2.73;;
22677;SDS011;26259;50.214;18.620;2023-04-15T13:23:19;6.30;;;3.00;;
22677;SDS011;26259;50.214;18.620;2023-04-15T13:25:44;6.70;;;2.70;;
22677;SDS011;26259;50.214;18.620;2023-04-15T13:28:10;4.93;;;2.63;;
22677;SDS011;26259;50.214;18.620;2023-04-15T13:30:36;2.33;;;2.13;;
22677;SDS011;26259;50.214;18.620;2023-04-15T13:33:02;1.87;;;1.70;;
22677;SDS011;26259;50.214;18.620;2023-04-15T13:35:28;3.00;;;2.40;;
22677;SDS011;26259;50.214;18.620;2023-04-15T13:37:55;4.77;;;3.10;;
22677;SDS011;26259;50.214;18.620;2023-04-15T13:40:21;4.73;;;2.20;;
22677;SDS011;26259;50.214;18.620;2023-04-15T13:42:46;3.50;;;2.10;;
22677;SDS011;26259;50.214;18.620;2023-04-15T13:45:12;2.13;;;1.83;;
22677;SDS011;26259;50.214;18.620;2023-04-15T13:47:39;3.90;;;3.23;;
22677;SDS011;26259;50.214;18.620;2023-04-15T13:50:05;3.37;;;2.87;;
22677;SDS011;26259;50.214;18.620;2023-04-15T13:52:31;5.03;;;3.73;;
22677;SDS011;26259;50.214;18.620;2023-04-15T13:54:56;4.20;;;3.20;;
22677;SDS011;26259;50.214;18.620;2023-04-15T13:57:22;3.43;;;3.10;;
22677;SDS011;26259;50.214;18.620;2023-04-15T13:59:47;7.53;;;4.93;;
22677;SDS011;26259;50.214;18.620;2023-04-15T14:02:13;3.43;;;2.73;;
22677;SDS011;26259;50.214;18.620;2023-04-15T14:04:38;3.63;;;2.97;;
22677;SDS011;26259;50.214;18.620;2023-04-15T14:07:04;4.50;;;3.47;;
22677;SDS011;26259;50.214;18.620;2023-04-15T14:09:30;2.80;;;2.30;;
22677;SDS011;26259;50.214;18.620;2023-04-15T14:11:55;3.30;;;2.30;;
22677;SDS011;26259;50.214;18.620;2023-04-15T14:14:21;4.53;;;2.83;;
22677;SDS011;26259;50.214;18.620;2023-04-15T14:16:46;4.97;;;3.20;;
22677;SDS011;26259;50.214;18.620;2023-04-15T14:19:13;6.00;;;3.03;;
22677;SDS011;26259;50.214;18.620;2023-04-15T14:21:38;5.73;;;2.97;;
22677;SDS011;26259;50.214;18.620;2023-04-15T14:24:04;5.03;;;4.00;;
22677;SDS011;26259;50.214;18.620;2023-04-15T14:26:30;4.50;;;3.33;;
22677;SDS011;26259;50.214;18.620;2023-04-15T14:28:55;3.50;;;3.20;;
22677;SDS011;26259;50.214;18.620;2023-04-15T14:31:21;4.07;;;3.27;;
22677;SDS011;26259;50.214;18.620;2023-04-15T14:33:46;5.00;;;3.50;;
22677;SDS011;26259;50.214;18.620;2023-04-15T14:36:12;7.17;;;5.23;;
22677;SDS011;26259;50.214;18.620;2023-04-15T14:38:37;10.37;;;6.40;;